createdAt,value
2019-01-27T00:01:25.512Z,6.80
2019-01-27T00:04:06.544Z,6.80
2019-01-27T00:06:47.091Z,6.80
2019-01-27T00:09:27.928Z,6.80
2019-01-27T00:12:09.750Z,6.80
2019-01-27T00:14:50.800Z,6.80
2019-01-27T00:17:31.843Z,6.80
2019-01-27T00:20:15.629Z,6.80
2019-01-27T00:22:56.862Z,6.80
2019-01-27T00:25:38.257Z,6.80
2019-01-27T00:28:18.920Z,6.80
2019-01-27T00:31:00.048Z,6.80
2019-01-27T00:33:41.341Z,6.90
2019-01-27T00:36:22.827Z,6.90
2019-01-27T00:39:05.025Z,6.80
2019-01-27T00:41:46.320Z,6.90
2019-01-27T00:44:27.290Z,6.80
2019-01-27T00:47:08.668Z,6.80
2019-01-27T00:52:31.879Z,6.80
2019-01-27T00:55:12.499Z,6.80
2019-01-27T00:57:54.097Z,6.90
2019-01-27T01:00:35.600Z,6.90
2019-01-27T01:03:19.168Z,6.90
2019-01-27T01:09:12.715Z,6.90
2019-01-27T01:11:54.191Z,6.90
2019-01-27T01:14:35.712Z,6.90
2019-01-27T01:17:17.373Z,6.90
2019-01-27T01:19:58.973Z,6.90
2019-01-27T01:22:40.386Z,6.90
2019-01-27T01:25:21.359Z,6.80
2019-01-27T01:28:02.174Z,6.90
2019-01-27T01:30:42.998Z,6.90
2019-01-27T01:33:24.498Z,6.90
2019-01-27T01:36:05.295Z,6.90
2019-01-27T01:38:46.746Z,6.90
2019-01-27T01:41:28.076Z,6.90
2019-01-27T01:44:09.632Z,7.00
2019-01-27T01:46:50.452Z,7.00
2019-01-27T01:49:32.033Z,7.00
2019-01-27T01:52:13.977Z,7.00
2019-01-27T01:54:54.915Z,7.00
2019-01-27T01:57:36.338Z,7.00
2019-01-27T02:00:17.004Z,7.00
2019-01-27T02:02:57.650Z,7.00
2019-01-27T02:05:38.767Z,7.00
2019-01-27T02:08:20.357Z,7.00
2019-01-27T02:11:01.550Z,7.00
2019-01-27T02:13:42.946Z,7.00
2019-01-27T02:16:24.288Z,7.00
2019-01-27T02:19:05.427Z,7.00
2019-01-27T02:21:46.962Z,7.00
2019-01-27T02:24:28.380Z,7.00
2019-01-27T02:27:09.765Z,7.00
2019-01-27T02:29:50.430Z,7.00
2019-01-27T02:32:31.005Z,7.00
2019-01-27T02:35:12.094Z,7.00
2019-01-27T02:37:53.631Z,7.00
2019-01-27T02:40:35.082Z,7.00
2019-01-27T02:43:15.897Z,7.00
2019-01-27T02:45:56.569Z,7.00
2019-01-27T02:48:37.221Z,7.00
2019-01-27T02:51:18.249Z,7.00
2019-01-27T02:53:59.078Z,7.00
2019-01-27T02:56:39.869Z,7.00
2019-01-27T02:59:20.737Z,7.00
2019-01-27T03:02:02.227Z,7.00
2019-01-27T03:04:43.615Z,7.00
2019-01-27T03:10:31.237Z,7.00
2019-01-27T03:13:11.837Z,7.00
2019-01-27T03:15:52.841Z,7.00
2019-01-27T03:18:34.210Z,7.00
2019-01-27T03:21:15.525Z,7.00
2019-01-27T03:23:56.747Z,7.00
2019-01-27T03:26:38.029Z,6.90
2019-01-27T03:29:19.259Z,7.00
2019-01-27T03:32:00.706Z,7.00
2019-01-27T03:34:42.600Z,6.90
2019-01-27T03:37:23.234Z,7.00
2019-01-27T03:40:04.369Z,6.90
2019-01-27T03:42:41.272Z,6.90
2019-01-27T03:45:20.561Z,6.80
2019-01-27T03:48:08.897Z,6.80
2019-01-27T03:50:38.421Z,6.80
2019-01-27T03:53:07.704Z,6.80
2019-01-27T03:55:56.186Z,6.90
2019-01-27T03:58:44.573Z,6.90
2019-01-27T04:01:25.782Z,6.90
2019-01-27T04:04:06.734Z,7.00
2019-01-27T04:06:47.854Z,7.00
2019-01-27T04:09:28.988Z,7.00
2019-01-27T04:12:09.670Z,7.00
2019-01-27T04:14:50.383Z,7.00
2019-01-27T04:17:30.955Z,7.00
2019-01-27T04:20:14.326Z,7.00
2019-01-27T04:22:55.317Z,7.00
2019-01-27T04:25:37.056Z,7.00
2019-01-27T04:28:18.155Z,7.00
2019-01-27T04:30:59.483Z,7.00
2019-01-27T04:33:29.143Z,7.00
2019-01-27T04:38:57.835Z,7.10
2019-01-27T04:41:37.137Z,7.00
2019-01-27T04:44:17.826Z,7.00
2019-01-27T04:46:58.242Z,7.00
2019-01-27T04:49:38.961Z,7.00
2019-01-27T04:52:18.347Z,7.00
2019-01-27T04:54:59.015Z,7.00
2019-01-27T04:57:40.405Z,7.00
2019-01-27T05:00:20.530Z,7.00
2019-01-27T05:03:08.837Z,7.00
2019-01-27T05:05:49.825Z,7.00
2019-01-27T05:08:30.496Z,7.00
2019-01-27T05:11:11.219Z,7.00
2019-01-27T05:13:52.489Z,6.90
2019-01-27T05:16:33.457Z,6.90
2019-01-27T05:19:14.683Z,6.90
2019-01-27T05:21:55.923Z,6.90
2019-01-27T05:24:36.674Z,6.90
2019-01-27T05:27:18.187Z,6.90
2019-01-27T05:33:01.262Z,6.90
2019-01-27T05:35:40.805Z,6.90
2019-01-27T05:38:21.412Z,6.90
2019-01-27T05:41:02.920Z,6.90
2019-01-27T05:43:43.520Z,6.90
2019-01-27T05:46:24.440Z,6.90
2019-01-27T05:49:05.915Z,6.90
2019-01-27T05:51:47.006Z,7.00
2019-01-27T05:54:27.829Z,7.00
2019-01-27T05:57:08.636Z,7.00
2019-01-27T05:59:50.048Z,7.00
2019-01-27T06:02:31.496Z,7.00
2019-01-27T06:05:12.694Z,7.00
2019-01-27T06:07:53.227Z,7.00
2019-01-27T06:10:32.948Z,7.00
2019-01-27T06:13:14.547Z,7.00
2019-01-27T06:15:55.184Z,7.00
2019-01-27T06:18:36.122Z,7.00
2019-01-27T06:21:16.692Z,7.00
2019-01-27T06:23:57.420Z,6.90
2019-01-27T06:26:38.110Z,6.90
2019-01-27T06:29:19.768Z,6.90
2019-01-27T06:32:00.395Z,6.90
2019-01-27T06:34:41.014Z,6.80
2019-01-27T06:37:24.903Z,6.80
2019-01-27T06:40:04.805Z,6.80
2019-01-27T06:42:46.241Z,6.80
2019-01-27T06:45:26.993Z,6.80
2019-01-27T06:48:07.592Z,6.80
2019-01-27T06:50:49.166Z,6.80
2019-01-27T06:53:30.538Z,6.80
2019-01-27T06:56:11.591Z,6.80
2019-01-27T06:59:11.961Z,6.90
2019-01-27T07:02:11.605Z,6.80
2019-01-27T07:04:58.029Z,6.80
2019-01-27T07:07:57.571Z,6.80
2019-01-27T07:10:57.327Z,6.80
2019-01-27T07:13:57.067Z,6.80
2019-01-27T07:16:57.087Z,6.80
2019-01-27T07:20:00.587Z,6.80
2019-01-27T07:23:02.173Z,6.80
2019-01-27T07:26:09.585Z,6.70
2019-01-27T07:29:09.301Z,6.70
2019-01-27T07:32:09.787Z,6.70
2019-01-27T07:35:03.539Z,6.70
2019-01-27T07:38:10.910Z,6.70
2019-01-27T07:41:11.253Z,6.70
2019-01-27T07:44:01.323Z,6.70
2019-01-27T07:47:01.449Z,6.70
2019-01-27T07:50:01.509Z,6.70
2019-01-27T07:53:07.777Z,6.70
2019-01-27T07:56:08.156Z,6.70
2019-01-27T07:58:56.881Z,6.70
2019-01-27T08:01:57.152Z,6.80
2019-01-27T08:04:57.535Z,6.80
2019-01-27T08:08:01.021Z,6.80
2019-01-27T08:10:52.732Z,6.80
2019-01-27T08:13:39.853Z,6.80
2019-01-27T08:16:35.218Z,6.80
2019-01-27T08:19:35.268Z,6.80
2019-01-27T08:22:22.082Z,6.80
2019-01-27T08:25:51.558Z,6.80
2019-01-27T08:31:55.459Z,6.70
2019-01-27T08:34:46.891Z,6.70
2019-01-27T08:37:41.258Z,6.70
2019-01-27T08:40:48.688Z,6.70
2019-01-27T08:43:48.822Z,6.70
2019-01-27T08:46:50.826Z,6.70
2019-01-27T08:49:30.066Z,6.70
2019-01-27T08:52:18.538Z,6.70
2019-01-27T08:54:59.682Z,6.70
2019-01-27T08:57:29.560Z,6.70
2019-01-27T09:00:05.576Z,6.70
2019-01-27T09:03:32.342Z,6.70
2019-01-27T09:06:32.040Z,6.70
2019-01-27T09:09:32.217Z,6.70
2019-01-27T09:12:29.544Z,6.70
2019-01-27T09:15:29.286Z,6.70
2019-01-27T09:18:28.818Z,6.70
2019-01-27T09:24:28.708Z,6.70
2019-01-27T09:27:28.937Z,6.70
2019-01-27T09:30:19.570Z,6.70
2019-01-27T09:33:10.137Z,6.70
2019-01-27T09:36:10.121Z,6.70
2019-01-27T09:39:16.388Z,6.70
2019-01-27T09:42:16.839Z,6.70
2019-01-27T09:45:20.043Z,6.70
2019-01-27T09:48:24.313Z,6.80
2019-01-27T09:51:31.704Z,6.80
2019-01-27T09:54:31.676Z,6.80
2019-01-27T09:57:32.072Z,6.70
2019-01-27T10:00:19.589Z,6.90
2019-01-27T10:03:06.546Z,6.90
2019-01-27T10:06:06.427Z,6.90
2019-01-27T10:09:12.553Z,6.90
2019-01-27T10:12:08.223Z,6.80
2019-01-27T10:15:08.597Z,6.80
2019-01-27T10:18:09.039Z,6.80
2019-01-27T10:21:09.007Z,6.90
2019-01-27T10:24:09.299Z,6.90
2019-01-27T10:27:08.892Z,6.90
2019-01-27T10:30:08.529Z,7.00
2019-01-27T10:33:04.785Z,7.00
2019-01-27T10:36:04.959Z,7.00
2019-01-27T10:38:58.540Z,7.10
2019-01-27T10:41:53.183Z,7.20
2019-01-27T10:44:43.088Z,7.20
2019-01-27T10:47:34.396Z,7.20
2019-01-27T10:50:26.098Z,7.20
2019-01-27T10:53:34.840Z,7.20
2019-01-27T10:56:33.823Z,7.20
2019-01-27T10:59:36.200Z,7.20
2019-01-27T11:02:42.130Z,7.20
2019-01-27T11:05:44.356Z,7.30
2019-01-27T11:08:43.938Z,7.30
2019-01-27T11:11:43.624Z,7.20
2019-01-27T11:14:50.907Z,7.20
2019-01-27T11:17:38.710Z,7.20
2019-01-27T11:20:39.882Z,7.10
2019-01-27T11:23:41.662Z,7.10
2019-01-27T11:26:34.937Z,7.10
2019-01-27T11:29:21.717Z,7.10
2019-01-27T11:32:21.522Z,7.10
2019-01-27T11:35:21.953Z,7.10
2019-01-27T11:38:13.292Z,7.10
2019-01-27T11:41:13.300Z,7.10
2019-01-27T11:44:09.148Z,7.00
2019-01-27T11:47:09.241Z,7.10
2019-01-27T11:50:09.681Z,7.10
2019-01-27T11:52:54.157Z,7.10
2019-01-27T11:55:25.715Z,7.10
2019-01-27T11:58:14.067Z,7.10
2019-01-27T12:04:04.971Z,7.20
2019-01-27T12:06:46.153Z,7.20
2019-01-27T12:09:26.995Z,7.20
2019-01-27T12:12:07.603Z,7.10
2019-01-27T12:14:48.403Z,7.00
2019-01-27T12:17:29.039Z,7.00
2019-01-27T12:23:23.187Z,6.90
2019-01-27T12:26:04.353Z,6.80
2019-01-27T12:28:53.349Z,6.70
2019-01-27T12:31:34.521Z,6.60
2019-01-27T12:34:15.957Z,6.50
2019-01-27T12:36:56.855Z,6.50
2019-01-27T12:39:38.137Z,6.40
2019-01-27T12:45:00.676Z,6.30
2019-01-27T12:47:41.520Z,6.20
2019-01-27T12:50:22.853Z,6.20
2019-01-27T12:53:03.705Z,6.10
2019-01-27T12:55:44.072Z,6.00
2019-01-27T12:58:24.472Z,5.90
2019-01-27T13:01:05.920Z,5.90
2019-01-27T13:03:46.609Z,5.90
2019-01-27T13:06:27.495Z,6.00
2019-01-27T13:09:08.592Z,6.00
2019-01-27T13:11:49.847Z,6.00
2019-01-27T13:14:30.582Z,6.00
2019-01-27T13:17:11.506Z,6.00
2019-01-27T13:19:53.828Z,6.00
2019-01-27T13:22:34.507Z,6.00
2019-01-27T13:25:13.809Z,6.00
2019-01-27T13:28:02.082Z,6.00
2019-01-27T13:30:31.487Z,6.00
2019-01-27T13:33:03.274Z,6.00
2019-01-27T13:35:50.920Z,6.00
2019-01-27T13:38:32.167Z,6.00
2019-01-27T13:41:12.750Z,6.00
2019-01-27T13:43:53.769Z,6.00
2019-01-27T13:49:34.817Z,5.90
2019-01-27T13:52:15.679Z,5.90
2019-01-27T13:54:57.149Z,5.90
2019-01-27T13:57:37.821Z,5.90
2019-01-27T14:00:19.342Z,5.90
2019-01-27T14:03:00.073Z,5.80
2019-01-27T14:05:40.715Z,5.70
2019-01-27T14:08:21.495Z,5.70
2019-01-27T14:11:02.398Z,5.70
2019-01-27T14:13:43.367Z,5.70
2019-01-27T14:16:24.731Z,5.70
2019-01-27T14:19:05.762Z,5.60
2019-01-27T14:21:47.207Z,5.70
2019-01-27T14:24:27.778Z,5.70
2019-01-27T14:27:09.063Z,5.70
2019-01-27T14:29:50.452Z,5.70
2019-01-27T14:32:31.171Z,5.60
2019-01-27T14:35:00.515Z,5.60
2019-01-27T14:37:48.802Z,5.60
2019-01-27T14:40:37.354Z,5.60
2019-01-27T14:43:17.878Z,5.60
2019-01-27T14:45:59.036Z,5.60
2019-01-27T14:48:39.745Z,5.70
2019-01-27T14:51:21.156Z,5.80
2019-01-27T14:54:01.715Z,5.80
2019-01-27T14:56:42.743Z,5.80
2019-01-27T14:59:24.040Z,5.80
2019-01-27T15:02:04.556Z,5.80
2019-01-27T15:04:45.014Z,5.80
2019-01-27T15:07:25.472Z,5.90
2019-01-27T15:10:06.118Z,5.80
2019-01-27T15:12:47.306Z,5.80
2019-01-27T15:15:28.345Z,5.70
2019-01-27T15:18:09.174Z,5.70
2019-01-27T15:20:50.260Z,5.70
2019-01-27T15:23:30.641Z,5.70
2019-01-27T15:26:11.498Z,5.70
2019-01-27T15:28:52.360Z,5.70
2019-01-27T15:31:33.684Z,5.70
2019-01-27T15:34:14.339Z,5.60
2019-01-27T15:36:55.759Z,5.60
2019-01-27T15:39:37.072Z,5.60
2019-01-27T15:48:15.127Z,5.70
2019-01-27T15:50:56.005Z,5.60
2019-01-27T15:53:37.315Z,5.50
2019-01-27T15:56:18.467Z,5.50
2019-01-27T15:58:59.137Z,5.50
2019-01-27T16:01:38.667Z,5.50
2019-01-27T16:04:20.013Z,5.50
2019-01-27T16:07:00.889Z,5.50
2019-01-27T16:09:41.348Z,5.40
2019-01-27T16:12:22.453Z,5.40
2019-01-27T16:15:03.078Z,5.40
2019-01-27T16:17:42.503Z,5.30
2019-01-27T16:20:30.737Z,5.30
2019-01-27T16:23:33.908Z,5.30
2019-01-27T16:26:15.318Z,5.30
2019-01-27T16:28:56.558Z,5.30
2019-01-27T16:31:41.475Z,5.30
2019-01-27T16:34:28.230Z,5.30
2019-01-27T16:37:09.561Z,5.20
2019-01-27T16:39:50.076Z,5.20
2019-01-27T16:42:30.849Z,5.20
2019-01-27T16:45:11.612Z,5.20
2019-01-27T16:47:52.975Z,5.20
2019-01-27T16:50:32.350Z,5.10
2019-01-27T16:53:20.707Z,5.10
2019-01-27T16:56:01.822Z,5.10
2019-01-27T16:58:42.312Z,5.10
2019-01-27T17:01:23.192Z,5.10
2019-01-27T17:04:03.754Z,5.10
2019-01-27T17:06:44.527Z,5.10
2019-01-27T17:09:25.799Z,5.10
2019-01-27T17:12:06.494Z,5.10
2019-01-27T17:14:47.370Z,5.10
2019-01-27T17:17:28.279Z,5.10
2019-01-27T17:20:08.879Z,5.10
2019-01-27T17:22:50.582Z,5.10
2019-01-27T17:25:29.664Z,5.10
2019-01-27T17:28:10.721Z,5.10
2019-01-27T17:33:33.988Z,5.10
2019-01-27T17:36:15.307Z,5.10
2019-01-27T17:38:56.091Z,5.10
2019-01-27T17:41:36.878Z,5.10
2019-01-27T17:44:17.685Z,5.10
2019-01-27T17:46:58.150Z,5.10
2019-01-27T17:49:39.497Z,5.10
2019-01-27T17:52:20.223Z,5.10
2019-01-27T17:55:00.907Z,5.10
2019-01-27T18:01:15.695Z,5.10
2019-01-27T18:04:21.293Z,5.00
2019-01-27T18:07:24.633Z,5.10
2019-01-27T18:13:40.038Z,5.00
2019-01-27T18:16:21.753Z,5.00
2019-01-27T18:19:03.213Z,5.00
2019-01-27T18:21:44.329Z,5.00
2019-01-27T18:24:25.283Z,5.00
2019-01-27T18:30:19.512Z,4.90
2019-01-27T18:33:02.368Z,4.80
2019-01-27T18:35:43.635Z,4.80
2019-01-27T18:38:25.008Z,4.70
2019-01-27T18:41:07.089Z,4.70
2019-01-27T18:43:48.561Z,4.70
2019-01-27T18:46:29.282Z,4.70
2019-01-27T18:49:10.735Z,4.70
2019-01-27T18:51:51.738Z,4.70
2019-01-27T18:54:52.023Z,4.70
2019-01-27T18:57:42.535Z,4.60
2019-01-27T19:00:42.482Z,4.30
2019-01-27T19:03:42.366Z,4.20
2019-01-27T19:06:33.338Z,4.10
2019-01-27T19:12:34.458Z,4.10
2019-01-27T19:15:34.872Z,4.10
2019-01-27T19:18:28.414Z,4.10
2019-01-27T19:24:28.876Z,4.10
2019-01-27T19:27:28.808Z,4.10
2019-01-27T19:30:25.752Z,4.10
2019-01-27T19:33:25.287Z,4.20
2019-01-27T19:36:15.474Z,4.20
2019-01-27T19:39:15.351Z,4.20
2019-01-27T19:42:15.566Z,4.30
2019-01-27T19:45:21.163Z,4.30
2019-01-27T19:51:06.563Z,4.40
2019-01-27T19:54:06.642Z,4.40
2019-01-27T19:57:02.168Z,4.50
2019-01-27T20:00:02.440Z,4.50
2019-01-27T20:03:02.803Z,4.50
2019-01-27T20:06:01.712Z,4.50
2019-01-27T20:09:07.619Z,4.50
2019-01-27T20:12:07.700Z,4.50
2019-01-27T20:14:57.845Z,4.50
2019-01-27T20:18:01.198Z,4.50
2019-01-27T20:21:00.909Z,4.50
2019-01-27T20:24:01.263Z,4.50
2019-01-27T20:32:55.784Z,4.70
2019-01-27T20:35:55.471Z,4.50
2019-01-27T20:38:46.888Z,4.50
2019-01-27T20:41:46.346Z,4.50
2019-01-27T20:44:40.593Z,4.40
2019-01-27T20:47:40.811Z,4.40
2019-01-27T20:50:40.674Z,4.40
2019-01-27T20:53:40.878Z,4.40
2019-01-27T20:56:28.477Z,4.40
2019-01-27T20:59:22.034Z,4.40
2019-01-27T21:02:09.194Z,4.40
2019-01-27T21:05:03.300Z,4.40
2019-01-27T21:07:56.130Z,4.40
2019-01-27T21:10:55.929Z,4.40
2019-01-27T21:13:43.858Z,4.40
2019-01-27T21:16:37.698Z,4.50
2019-01-27T21:19:37.593Z,4.50
2019-01-27T21:22:18.232Z,4.50
2019-01-27T21:24:57.629Z,4.50
2019-01-27T21:27:38.393Z,4.50
2019-01-27T21:30:18.887Z,4.50
2019-01-27T21:32:58.213Z,4.50
2019-01-27T21:35:46.599Z,4.50
2019-01-27T21:38:28.067Z,4.50
2019-01-27T21:41:08.760Z,4.50
2019-01-27T21:43:49.319Z,4.50
2019-01-27T21:46:30.190Z,4.50
2019-01-27T21:49:11.577Z,4.50
2019-01-27T21:51:52.978Z,4.50
2019-01-27T21:54:33.515Z,4.50
2019-01-27T21:57:14.158Z,4.50
2019-01-27T21:59:55.317Z,4.50
2019-01-27T22:02:36.594Z,4.40
2019-01-27T22:05:06.346Z,4.40
2019-01-27T22:07:54.556Z,4.40
2019-01-27T22:10:23.853Z,4.40
2019-01-27T22:13:12.146Z,4.30
2019-01-27T22:15:52.833Z,4.30
2019-01-27T22:18:34.075Z,4.30
2019-01-27T22:21:14.875Z,4.20
2019-01-27T22:23:56.145Z,4.20
2019-01-27T22:26:37.002Z,4.10
2019-01-27T22:29:17.573Z,4.00
2019-01-27T22:31:58.377Z,4.00
2019-01-27T22:34:38.949Z,4.00
2019-01-27T22:37:23.408Z,3.90
2019-01-27T22:40:03.949Z,3.90
2019-01-27T22:42:44.517Z,3.90
2019-01-27T22:45:24.989Z,3.90
2019-01-27T22:48:05.746Z,3.90
2019-01-27T22:50:46.589Z,3.90
2019-01-27T22:53:27.390Z,3.90
2019-01-27T22:56:08.033Z,3.90
2019-01-27T22:58:48.606Z,3.90
2019-01-27T23:01:29.218Z,3.90
2019-01-27T23:04:10.247Z,3.90
2019-01-27T23:06:51.338Z,3.90
2019-01-27T23:09:32.321Z,3.90
2019-01-27T23:15:29.798Z,3.80
2019-01-27T23:18:18.051Z,3.80
2019-01-27T23:20:59.205Z,3.80
2019-01-27T23:23:39.847Z,3.70
2019-01-27T23:26:20.903Z,3.70
2019-01-27T23:29:01.574Z,3.70
2019-01-27T23:31:42.438Z,3.70
2019-01-27T23:34:23.363Z,3.60
2019-01-27T23:37:04.167Z,3.60
2019-01-27T23:39:44.716Z,3.60
2019-01-27T23:42:25.524Z,3.60
2019-01-27T23:45:06.412Z,3.60
2019-01-27T23:47:47.750Z,3.60
2019-01-27T23:50:29.238Z,3.60
2019-01-27T23:53:09.787Z,3.60
2019-01-27T23:55:51.082Z,3.50
2019-01-27T23:58:31.832Z,3.50
